Time;durP1;ratioP1;P1;durP2;ratioP2;P2;SDS_P1;SDS_P2;PMS_P1;PMS_P2;Temp;Humidity;BMP_temperature;BMP_pressure;BME280_temperature;BME280_humidity;BME280_pressure;Samples;Min_cycle;Max_cycle;Signal;HPM_P1;HPM_P2
2021/12/15 00:01:50;;;;;;;37.00;15.15;;;6.40;99.90;;;;;;5094110;28;20180;-63
2021/12/15 00:04:15;;;;;;;41.78;16.20;;;6.40;99.90;;;;;;5094249;28;20180;-63
2021/12/15 00:06:41;;;;;;;38.05;15.60;;;6.40;99.90;;;;;;5094079;28;20186;-62
2021/12/15 00:09:10;;;;;;;42.97;17.65;;;6.40;99.90;;;;;;5093793;28;20203;-63
2021/12/15 00:11:37;;;;;;;43.72;16.98;;;6.30;99.90;;;;;;5094017;28;20176;-61
2021/12/15 00:14:09;;;;;;;46.25;17.38;;;6.40;99.90;;;;;;5093832;28;20216;-62
2021/12/15 00:16:35;;;;;;;46.72;17.50;;;6.40;99.90;;;;;;5093867;28;20176;-62
2021/12/15 00:19:01;;;;;;;46.72;17.38;;;6.40;99.90;;;;;;5094259;28;20176;-62
2021/12/15 00:21:27;;;;;;;40.88;16.48;;;6.40;99.90;;;;;;5092211;28;20183;-62
2021/12/15 00:23:52;;;;;;;41.17;17.15;;;6.40;99.90;;;;;;5093368;28;20583;-62
2021/12/15 00:26:19;;;;;;;44.80;17.25;;;6.40;99.90;;;;;;5093770;28;20229;-63
2021/12/15 00:28:45;;;;;;;41.25;17.05;;;6.40;99.90;;;;;;5093326;28;20246;-62
2021/12/15 00:31:12;;;;;;;43.78;16.48;;;6.40;99.90;;;;;;5093148;28;20635;-63
2021/12/15 00:33:40;;;;;;;40.58;16.75;;;6.40;99.90;;;;;;5093369;28;20211;-63
2021/12/15 00:36:06;;;;;;;45.17;17.35;;;6.40;99.90;;;;;;5093750;28;20175;-63
2021/12/15 00:38:32;;;;;;;43.97;17.77;;;6.40;99.90;;;;;;5093135;28;20184;-63
2021/12/15 00:40:58;;;;;;;47.97;17.73;;;6.40;99.90;;;;;;5093653;28;20176;-63
2021/12/15 00:43:24;;;;;;;45.25;18.45;;;6.40;99.90;;;;;;5091734;28;20176;-64
2021/12/15 00:45:50;;;;;;;39.72;16.50;;;6.30;99.90;;;;;;5092028;28;20176;-62
2021/12/15 00:48:16;;;;;;;40.20;16.45;;;6.30;99.90;;;;;;5093645;28;20175;-63
2021/12/15 00:50:43;;;;;;;41.20;17.45;;;6.30;99.90;;;;;;5092766;28;20191;-63
2021/12/15 00:53:09;;;;;;;40.45;16.33;;;6.30;99.90;;;;;;5091953;28;20216;-63
2021/12/15 00:55:37;;;;;;;38.03;17.55;;;6.30;99.90;;;;;;5093022;28;20242;-64
2021/12/15 00:58:05;;;;;;;40.17;17.27;;;6.30;99.90;;;;;;5093152;28;20183;-63
2021/12/15 01:00:35;;;;;;;39.78;17.05;;;6.30;99.90;;;;;;5093106;28;20184;-63
2021/12/15 01:03:01;;;;;;;37.03;16.95;;;6.30;99.90;;;;;;5093197;28;20176;-64
2021/12/15 01:05:34;;;;;;;40.53;15.68;;;6.30;99.90;;;;;;5092556;28;20168;-63
2021/12/15 01:08:01;;;;;;;34.45;14.55;;;6.30;99.90;;;;;;5091798;28;20195;-63
2021/12/15 01:10:42;;;;;;;36.85;14.85;;;6.30;99.90;;;;;;5092940;28;20254;-64
2021/12/15 01:21:10;;;;;;;49.45;17.23;;;6.30;99.90;;;;;;5092771;28;20179;-62
2021/12/15 01:23:36;;;;;;;42.10;15.13;;;6.30;99.90;;;;;;5092556;28;20634;-62
2021/12/15 01:26:08;;;;;;;41.38;15.57;;;6.30;99.90;;;;;;5092699;28;20183;-63
2021/12/15 01:28:34;;;;;;;37.28;16.08;;;6.40;99.90;;;;;;5092443;28;20195;-62
2021/12/15 01:31:03;;;;;;;36.42;14.55;;;6.30;99.90;;;;;;5092424;28;20172;-63
2021/12/15 01:33:29;;;;;;;37.50;14.75;;;6.30;99.90;;;;;;5079469;28;20239;-63
2021/12/15 01:35:57;;;;;;;38.97;15.80;;;6.30;99.90;;;;;;5092314;28;20180;-63
2021/12/15 01:38:26;;;;;;;60.75;22.45;;;6.30;99.90;;;;;;5087751;28;20192;-63
2021/12/15 01:40:52;;;;;;;46.72;17.30;;;6.30;99.90;;;;;;5092575;28;20191;-63
2021/12/15 01:49:19;;;;;;;36.33;15.45;;;6.30;99.90;;;;;;5072281;28;20230;-63
2021/12/15 01:51:44;;;;;;;39.38;14.70;;;6.30;99.90;;;;;;5079972;28;20245;-63
2021/12/15 01:54:11;;;;;;;42.28;15.63;;;6.30;99.90;;;;;;5091977;28;20219;-63
2021/12/15 01:56:37;;;;;;;38.83;14.45;;;6.30;99.90;;;;;;5091453;28;20224;-64
2021/12/15 01:59:04;;;;;;;45.10;17.02;;;6.30;99.90;;;;;;5091767;28;20228;-63
2021/12/15 02:01:30;;;;;;;47.28;19.05;;;6.30;99.90;;;;;;5091833;28;20249;-63
2021/12/15 02:03:57;;;;;;;66.00;24.98;;;6.30;99.90;;;;;;5092125;28;20180;-63
2021/12/15 02:06:23;;;;;;;76.65;28.52;;;6.40;99.90;;;;;;5091534;28;20682;-61
2021/12/15 02:08:49;;;;;;;115.82;37.22;;;6.40;99.90;;;;;;5091559;28;20187;-61
2021/12/15 02:11:15;;;;;;;114.88;38.60;;;6.40;99.90;;;;;;5090830;28;20534;-61
2021/12/15 02:13:41;;;;;;;74.10;25.00;;;6.40;99.90;;;;;;5091342;28;20305;-61
2021/12/15 02:16:07;;;;;;;50.58;18.33;;;6.40;99.90;;;;;;5091589;28;20651;-61
2021/12/15 02:18:36;;;;;;;62.88;21.50;;;6.40;99.90;;;;;;5091533;28;20184;-61
2021/12/15 02:21:08;;;;;;;102.45;34.17;;;6.40;99.90;;;;;;5091379;28;20221;-61
2021/12/15 02:23:41;;;;;;;67.13;24.55;;;6.40;99.90;;;;;;5091430;28;20655;-61
2021/12/15 02:26:12;;;;;;;80.88;28.42;;;6.40;99.90;;;;;;5089111;28;20184;-62
2021/12/15 02:28:39;;;;;;;81.72;28.67;;;6.40;99.90;;;;;;5091162;28;20191;-62
2021/12/15 02:31:18;;;;;;;98.82;34.67;;;6.40;99.90;;;;;;5090112;28;20173;-61
2021/12/15 02:34:01;;;;;;;76.25;26.15;;;6.40;99.90;;;;;;5091085;28;20211;-61
2021/12/15 02:39:11;;;;;;;65.22;23.38;;;6.30;99.90;;;;;;5091481;28;20190;-61
2021/12/15 02:41:43;;;;;;;94.32;31.42;;;6.30;99.90;;;;;;5091256;28;20188;-61
2021/12/15 02:44:14;;;;;;;135.48;44.58;;;6.30;99.90;;;;;;5091556;28;20184;-61
2021/12/15 02:46:41;;;;;;;128.13;42.58;;;6.30;99.90;;;;;;5090844;28;20188;-61
2021/12/15 02:49:08;;;;;;;101.55;34.92;;;6.30;99.90;;;;;;5075198;28;20603;-61
2021/12/15 02:51:36;;;;;;;74.45;26.65;;;6.30;99.90;;;;;;5091297;28;20541;-61
2021/12/15 02:54:03;;;;;;;48.30;18.60;;;6.30;99.90;;;;;;5091239;28;20276;-62
2021/12/15 02:56:29;;;;;;;40.63;17.60;;;6.40;99.90;;;;;;5090563;28;20262;-62
2021/12/15 02:59:02;;;;;;;36.35;15.88;;;6.40;99.90;;;;;;5091423;28;20206;-62
2021/12/15 03:01:56;;;;;;;35.60;15.13;;;6.40;99.90;;;;;;5091194;28;20263;-61
2021/12/15 03:04:37;;;;;;;36.42;14.52;;;6.40;99.90;;;;;;5090466;28;20229;-62
2021/12/15 03:07:34;;;;;;;38.70;15.50;;;6.30;99.90;;;;;;5090602;28;20176;-62
2021/12/15 03:18:13;;;;;;;38.33;15.15;;;6.30;99.90;;;;;;5091127;28;20180;-62
2021/12/15 03:21:00;;;;;;;37.65;15.70;;;6.30;99.90;;;;;;5091529;28;20210;-62
2021/12/15 03:23:38;;;;;;;35.85;15.43;;;6.40;99.90;;;;;;5088900;28;20200;-61
2021/12/15 03:26:05;;;;;;;42.40;15.35;;;6.40;99.90;;;;;;5091043;28;20195;-62
2021/12/15 03:39:21;;;;;;;32.55;14.38;;;6.30;99.90;;;;;;5094190;28;20188;-62
2021/12/15 03:41:55;;;;;;;39.35;16.48;;;6.30;99.90;;;;;;5093758;28;20256;-62
2021/12/15 03:44:21;;;;;;;37.70;16.42;;;6.30;99.90;;;;;;5094422;28;20510;-61
2021/12/15 03:46:47;;;;;;;37.63;15.15;;;6.30;99.90;;;;;;5092637;28;20175;-62
2021/12/15 03:49:13;;;;;;;37.55;14.52;;;6.30;99.90;;;;;;5094286;28;20180;-61
2021/12/15 03:51:38;;;;;;;37.80;15.60;;;6.30;99.90;;;;;;5094459;28;20176;-62
2021/12/15 03:54:05;;;;;;;36.67;15.23;;;6.30;99.90;;;;;;5093498;28;20344;-61
2021/12/15 03:56:31;;;;;;;34.53;15.05;;;6.30;99.90;;;;;;5093477;28;20676;-61
2021/12/15 03:58:57;;;;;;;37.60;16.27;;;6.20;99.90;;;;;;5094315;28;20271;-61
2021/12/15 04:01:23;;;;;;;39.05;16.10;;;6.20;99.90;;;;;;5094252;28;20219;-62
2021/12/15 04:03:54;;;;;;;36.45;15.70;;;6.20;99.90;;;;;;5093579;28;20262;-61
2021/12/15 04:06:24;;;;;;;35.45;14.70;;;6.20;99.90;;;;;;5094138;28;20180;-61
2021/12/15 04:08:50;;;;;;;37.92;14.73;;;6.20;99.90;;;;;;5093931;28;20183;-61
2021/12/15 04:11:19;;;;;;;38.75;15.60;;;6.20;99.90;;;;;;5093498;28;20180;-61
2021/12/15 04:13:47;;;;;;;37.45;15.10;;;6.20;99.90;;;;;;5093056;28;20223;-62
2021/12/15 04:16:41;;;;;;;33.05;15.07;;;6.20;99.90;;;;;;5092367;28;20196;-62
2021/12/15 04:19:08;;;;;;;31.48;14.18;;;6.20;99.90;;;;;;5093507;28;20188;-61
2021/12/15 04:21:35;;;;;;;36.47;15.00;;;6.20;99.90;;;;;;5093094;28;20321;-61
2021/12/15 04:24:01;;;;;;;36.63;14.98;;;6.30;99.90;;;;;;5092572;28;20184;-62
2021/12/15 04:26:27;;;;;;;29.67;13.85;;;6.30;99.90;;;;;;5093041;28;20176;-61
2021/12/15 04:28:53;;;;;;;36.58;15.23;;;6.30;99.90;;;;;;5092521;28;20187;-61
2021/12/15 04:31:22;;;;;;;40.40;15.43;;;6.30;99.90;;;;;;5093053;28;20266;-62
2021/12/15 04:33:59;;;;;;;33.35;14.30;;;6.30;99.90;;;;;;5093122;28;20302;-61
2021/12/15 04:36:28;;;;;;;38.75;16.40;;;6.30;99.90;;;;;;5091949;28;20184;-61
2021/12/15 04:38:56;;;;;;;41.78;16.48;;;6.30;99.90;;;;;;5093254;28;20640;-63
2021/12/15 04:41:22;;;;;;;35.45;13.95;;;6.30;99.90;;;;;;5093029;28;20528;-61
2021/12/15 04:43:57;;;;;;;34.92;14.27;;;6.30;99.90;;;;;;5093021;28;20190;-61
2021/12/15 04:46:25;;;;;;;35.47;15.27;;;6.30;99.90;;;;;;5093210;28;20174;-61
2021/12/15 04:48:52;;;;;;;34.70;13.77;;;6.30;99.90;;;;;;5091916;28;20180;-61
2021/12/15 04:51:18;;;;;;;40.78;16.92;;;6.30;99.90;;;;;;5093100;28;20183;-61
2021/12/15 04:53:45;;;;;;;54.42;18.63;;;6.30;99.90;;;;;;5093054;28;20244;-61
2021/12/15 04:56:11;;;;;;;46.10;18.27;;;6.30;99.90;;;;;;5092790;28;20216;-61
2021/12/15 04:58:36;;;;;;;36.65;15.77;;;6.30;99.90;;;;;;5093438;28;20279;-61
2021/12/15 05:01:07;;;;;;;36.45;15.63;;;6.30;99.90;;;;;;5093523;28;20381;-63
2021/12/15 05:03:33;;;;;;;38.17;14.48;;;6.30;99.90;;;;;;5092799;28;20196;-64
2021/12/15 05:05:59;;;;;;;37.85;14.85;;;6.30;99.90;;;;;;5092236;28;20180;-62
2021/12/15 05:08:25;;;;;;;47.10;17.60;;;6.30;99.90;;;;;;5092468;28;20589;-62
2021/12/15 05:10:54;;;;;;;67.05;24.20;;;6.30;99.90;;;;;;5092686;28;20183;-61
2021/12/15 05:13:20;;;;;;;53.70;22.25;;;6.30;99.90;;;;;;5092734;28;20748;-61
2021/12/15 05:15:45;;;;;;;46.15;16.50;;;6.30;99.90;;;;;;5074732;28;20181;-59
2021/12/15 05:18:11;;;;;;;37.97;14.07;;;6.30;99.90;;;;;;5090719;28;20193;-60
2021/12/15 05:20:39;;;;;;;37.70;15.02;;;6.30;99.90;;;;;;5092597;28;20232;-60
2021/12/15 05:23:06;;;;;;;40.72;16.25;;;6.20;99.90;;;;;;5092234;28;20640;-59
2021/12/15 05:25:32;;;;;;;39.25;14.95;;;6.30;99.90;;;;;;5092849;28;20184;-59
2021/12/15 05:27:57;;;;;;;40.40;15.40;;;6.20;99.90;;;;;;5091498;28;20180;-59
2021/12/15 05:30:24;;;;;;;38.28;15.40;;;6.20;99.90;;;;;;5091279;28;20183;-59
2021/12/15 05:32:49;;;;;;;41.13;16.02;;;6.20;99.90;;;;;;5092234;28;20168;-59
2021/12/15 05:35:21;;;;;;;39.42;14.82;;;6.20;99.90;;;;;;5085676;28;20260;-59
2021/12/15 05:37:48;;;;;;;37.10;13.85;;;6.20;99.90;;;;;;5072900;28;20180;-59
2021/12/15 05:40:14;;;;;;;39.83;14.00;;;6.20;99.90;;;;;;5092514;28;20271;-60
2021/12/15 05:42:40;;;;;;;40.75;14.77;;;6.20;99.90;;;;;;5092664;28;20259;-60
2021/12/15 05:45:07;;;;;;;36.47;14.68;;;6.20;99.90;;;;;;5092121;28;20598;-59
2021/12/15 05:47:33;;;;;;;42.05;15.95;;;6.20;99.90;;;;;;5092480;28;20204;-60
2021/12/15 05:49:58;;;;;;;42.28;15.55;;;6.20;99.90;;;;;;5092225;28;20237;-60
2021/12/15 05:52:28;;;;;;;41.15;15.55;;;6.20;99.90;;;;;;5092430;28;20199;-60
2021/12/15 05:54:54;;;;;;;48.78;16.35;;;6.20;99.90;;;;;;5092278;28;20290;-60
2021/12/15 05:57:19;;;;;;;42.97;15.88;;;6.20;99.90;;;;;;5092343;28;20648;-60
2021/12/15 05:59:45;;;;;;;39.85;16.48;;;6.20;99.90;;;;;;5090587;28;20190;-60
2021/12/15 06:02:11;;;;;;;45.10;16.45;;;6.20;99.90;;;;;;5090915;28;20180;-59
2021/12/15 06:04:36;;;;;;;50.55;17.83;;;6.20;99.90;;;;;;5092174;28;20187;-59
2021/12/15 06:07:03;;;;;;;45.92;17.88;;;6.20;99.90;;;;;;5092309;28;20168;-60
2021/12/15 06:09:29;;;;;;;37.15;15.30;;;6.20;99.90;;;;;;5090464;28;20541;-60
2021/12/15 06:11:55;;;;;;;41.10;15.80;;;6.20;99.90;;;;;;5092196;28;20172;-59
2021/12/15 06:14:27;;;;;;;40.88;15.82;;;6.20;99.90;;;;;;5091819;28;20204;-60
2021/12/15 06:17:00;;;;;;;37.60;15.50;;;6.20;99.90;;;;;;5091553;28;20184;-59
2021/12/15 06:19:25;;;;;;;40.63;14.75;;;6.20;99.90;;;;;;5091879;28;20176;-60
2021/12/15 06:21:51;;;;;;;40.72;14.57;;;6.20;99.90;;;;;;5092044;28;20540;-59
2021/12/15 06:24:17;;;;;;;37.47;15.00;;;6.20;99.90;;;;;;5091937;28;20678;-59
2021/12/15 06:26:43;;;;;;;40.47;15.80;;;6.20;99.90;;;;;;5091739;28;20184;-60
2021/12/15 06:29:08;;;;;;;35.50;15.10;;;6.20;99.90;;;;;;5091711;28;20214;-59
2021/12/15 06:31:34;;;;;;;41.35;15.25;;;6.20;99.90;;;;;;5091545;28;20179;-60
2021/12/15 06:33:59;;;;;;;36.58;14.60;;;6.20;99.90;;;;;;5091479;28;20215;-59
2021/12/15 06:36:27;;;;;;;38.08;14.15;;;6.20;99.90;;;;;;5091925;28;20690;-60
2021/12/15 06:38:54;;;;;;;42.38;15.35;;;6.20;99.90;;;;;;5091996;28;20191;-59
2021/12/15 06:41:21;;;;;;;36.13;14.48;;;6.20;99.90;;;;;;5091728;28;20172;-60
2021/12/15 06:43:50;;;;;;;37.50;14.18;;;6.20;99.90;;;;;;5091898;28;20175;-60
2021/12/15 06:59:43;;;;;;;36.33;14.32;;;6.30;99.90;;;;;;5091755;28;20172;-60
2021/12/15 07:02:09;;;;;;;37.63;16.13;;;6.30;99.90;;;;;;5091751;28;20200;-59
2021/12/15 07:04:35;;;;;;;35.15;13.68;;;6.30;99.90;;;;;;5091570;28;20703;-60
2021/12/15 07:07:02;;;;;;;36.53;14.98;;;6.20;99.90;;;;;;5091612;28;20237;-60
2021/12/15 07:09:29;;;;;;;35.00;14.40;;;6.30;99.90;;;;;;5091416;28;20203;-60
2021/12/15 07:11:54;;;;;;;40.15;14.57;;;6.20;99.90;;;;;;5091590;28;20657;-60
2021/12/15 07:14:20;;;;;;;36.13;14.35;;;6.20;99.90;;;;;;5095089;28;20226;-60
2021/12/15 07:16:49;;;;;;;34.58;13.90;;;6.20;99.90;;;;;;5095545;28;20199;-60
2021/12/15 07:20:02;;;;;;;36.22;14.75;;;6.20;99.90;;;;;;5095412;28;20253;-60
2021/12/15 07:22:30;;;;;;;34.88;13.95;;;6.20;99.90;;;;;;5095119;28;20184;-61
2021/12/15 07:24:55;;;;;;;35.50;15.35;;;6.20;99.90;;;;;;5095397;28;20168;-60
2021/12/15 07:27:21;;;;;;;36.45;14.95;;;6.30;99.90;;;;;;5095156;28;20180;-60
2021/12/15 07:29:46;;;;;;;39.33;14.32;;;6.30;99.90;;;;;;5095141;28;20584;-61
2021/12/15 07:32:12;;;;;;;31.88;15.18;;;6.20;99.90;;;;;;5095287;28;20584;-61
2021/12/15 07:34:37;;;;;;;40.83;15.43;;;6.20;99.90;;;;;;5094903;28;20737;-61
2021/12/15 07:37:03;;;;;;;41.10;16.00;;;6.30;99.90;;;;;;5093907;28;20277;-61
2021/12/15 07:39:29;;;;;;;35.45;15.13;;;6.20;99.90;;;;;;5094932;28;20180;-61
2021/12/15 07:42:05;;;;;;;34.75;15.23;;;6.30;99.90;;;;;;5094987;28;20214;-61
2021/12/15 07:44:31;;;;;;;38.83;14.85;;;6.30;99.90;;;;;;5094922;28;20263;-61
2021/12/15 07:46:57;;;;;;;38.03;14.38;;;6.30;99.90;;;;;;5094713;28;20277;-60
2021/12/15 07:49:24;;;;;;;34.95;14.68;;;6.30;99.90;;;;;;5094794;28;20194;-61
2021/12/15 07:51:59;;;;;;;36.67;14.88;;;6.30;99.90;;;;;;5094971;28;20259;-59
2021/12/15 07:54:25;;;;;;;34.83;14.85;;;6.30;99.90;;;;;;5094836;28;20219;-61
2021/12/15 07:56:50;;;;;;;40.42;16.85;;;6.40;99.90;;;;;;5094486;28;20224;-61
2021/12/15 07:59:16;;;;;;;42.30;16.40;;;6.30;99.90;;;;;;5094597;28;20188;-60
2021/12/15 08:01:42;;;;;;;38.35;16.80;;;6.40;99.90;;;;;;5094649;28;20175;-61
2021/12/15 08:04:08;;;;;;;38.65;17.02;;;6.40;99.90;;;;;;5094661;28;20177;-61
2021/12/15 08:06:34;;;;;;;37.80;15.90;;;6.40;99.90;;;;;;5094429;28;20215;-61
2021/12/15 08:09:00;;;;;;;35.92;16.55;;;6.40;99.90;;;;;;5094629;28;20222;-59
2021/12/15 08:11:25;;;;;;;36.53;15.15;;;6.50;99.90;;;;;;5094341;28;20172;-59
2021/12/15 08:13:51;;;;;;;33.45;16.10;;;6.50;99.90;;;;;;5094339;28;20216;-61
2021/12/15 08:16:19;;;;;;;32.28;14.00;;;6.50;99.90;;;;;;5094120;28;20601;-61
2021/12/15 08:18:45;;;;;;;30.98;13.75;;;6.50;99.90;;;;;;5093135;28;20196;-60
2021/12/15 08:21:11;;;;;;;29.70;13.38;;;6.60;99.90;;;;;;5094384;28;20175;-61
2021/12/15 08:23:37;;;;;;;24.98;11.90;;;6.60;99.90;;;;;;5093209;28;20168;-60
2021/12/15 08:26:03;;;;;;;25.65;11.55;;;6.70;99.90;;;;;;5093701;28;20176;-61
2021/12/15 08:28:29;;;;;;;25.98;11.73;;;6.70;99.90;;;;;;5094155;28;20192;-61
2021/12/15 08:30:55;;;;;;;24.27;11.85;;;6.80;99.90;;;;;;5093994;28;20223;-61
2021/12/15 08:33:22;;;;;;;25.70;11.85;;;6.80;99.90;;;;;;5094197;28;20200;-61
2021/12/15 08:36:01;;;;;;;22.42;10.90;;;6.90;99.90;;;;;;5092782;28;20241;-61
2021/12/15 08:38:32;;;;;;;28.27;12.13;;;6.90;99.90;;;;;;5093971;28;20519;-61
2021/12/15 08:41:00;;;;;;;25.73;12.43;;;7.00;99.90;;;;;;5094041;28;20259;-61
2021/12/15 08:43:26;;;;;;;25.13;12.25;;;7.10;99.90;;;;;;5093891;28;20233;-61
2021/12/15 08:45:58;;;;;;;26.63;12.32;;;7.10;99.90;;;;;;5093825;28;20172;-61
2021/12/15 08:48:25;;;;;;;22.45;11.68;;;7.10;99.90;;;;;;5093793;28;20211;-61
2021/12/15 08:50:51;;;;;;;25.35;11.88;;;7.20;99.90;;;;;;5093843;28;20180;-61
2021/12/15 08:53:17;;;;;;;25.13;11.95;;;7.20;99.90;;;;;;5093508;28;20264;-61
2021/12/15 08:55:46;;;;;;;23.77;11.00;;;7.30;99.90;;;;;;5093572;28;20229;-61
2021/12/15 08:58:13;;;;;;;25.58;11.15;;;7.30;99.90;;;;;;5093662;28;20192;-61
2021/12/15 09:00:44;;;;;;;25.00;11.30;;;7.40;99.90;;;;;;5093493;28;20525;-61
2021/12/15 09:03:11;;;;;;;24.95;11.55;;;7.40;99.90;;;;;;5093554;28;20254;-61
2021/12/15 09:05:37;;;;;;;23.85;11.43;;;7.40;99.90;;;;;;5093303;28;20218;-61
2021/12/15 09:08:10;;;;;;;26.75;12.25;;;7.50;99.90;;;;;;5093421;28;20182;-61
2021/12/15 09:10:37;;;;;;;22.65;11.30;;;7.50;99.90;;;;;;5093089;28;20233;-61
2021/12/15 09:13:04;;;;;;;23.15;11.15;;;7.60;99.90;;;;;;5093376;28;20202;-61
2021/12/15 09:15:30;;;;;;;21.80;10.98;;;7.60;99.90;;;;;;5093217;28;20188;-61
2021/12/15 09:17:57;;;;;;;23.45;11.80;;;7.70;99.90;;;;;;5093160;28;20173;-61
2021/12/15 09:20:26;;;;;;;23.00;12.05;;;7.70;99.90;;;;;;5093095;28;20271;-61
2021/12/15 09:22:52;;;;;;;23.65;11.20;;;7.80;99.90;;;;;;5093164;28;20172;-61
2021/12/15 09:25:18;;;;;;;26.17;11.95;;;7.80;99.90;;;;;;5093047;28;20529;-61
2021/12/15 09:27:45;;;;;;;24.25;12.13;;;7.90;99.90;;;;;;5093021;28;20233;-61
2021/12/15 09:30:16;;;;;;;23.10;11.15;;;8.00;99.90;;;;;;5092960;28;20263;-61
2021/12/15 09:32:42;;;;;;;27.23;12.60;;;8.00;99.90;;;;;;5093045;28;20635;-61
2021/12/15 09:35:09;;;;;;;25.48;13.07;;;8.10;99.90;;;;;;5092434;28;20695;-61
2021/12/15 09:37:34;;;;;;;23.75;11.27;;;8.10;99.90;;;;;;5092713;28;20203;-61
2021/12/15 09:40:00;;;;;;;25.40;11.13;;;8.20;99.90;;;;;;5092808;28;20223;-61
2021/12/15 09:42:33;;;;;;;26.70;12.35;;;8.20;99.90;;;;;;5092711;28;20655;-61
2021/12/15 09:45:15;;;;;;;27.83;12.82;;;8.30;99.90;;;;;;5092775;28;20172;-61
2021/12/15 10:18:11;;;;;;;26.60;12.65;;;8.50;99.90;;;;;;5092497;28;20180;-60
2021/12/15 10:20:38;;;;;;;24.00;12.65;;;8.60;99.90;;;;;;5092009;28;20168;-61
2021/12/15 10:23:08;;;;;;;30.67;13.38;;;8.60;99.90;;;;;;5092261;28;20553;-61
2021/12/15 10:25:43;;;;;;;24.95;12.73;;;8.70;99.90;;;;;;5091946;28;20259;-61
2021/12/15 10:28:12;;;;;;;28.10;12.45;;;8.70;99.90;;;;;;5090989;28;20723;-61
2021/12/15 10:30:44;;;;;;;30.17;13.23;;;8.80;99.90;;;;;;5091832;28;20180;-61
2021/12/15 10:33:15;;;;;;;26.50;12.40;;;8.90;99.90;;;;;;5092033;28;20281;-61
2021/12/15 10:35:50;;;;;;;27.33;12.30;;;8.90;99.90;;;;;;5090639;28;20179;-61
2021/12/15 10:38:41;;;;;;;26.58;13.30;;;9.00;99.90;;;;;;5091888;28;20172;-61
2021/12/15 10:41:09;;;;;;;25.13;12.98;;;9.00;99.90;;;;;;5092032;28;20168;-61
2021/12/15 10:43:57;;;;;;;25.70;11.25;;;9.00;99.90;;;;;;5091655;28;20184;-61
2021/12/15 10:46:32;;;;;;;20.92;9.40;;;9.00;99.90;;;;;;5092006;28;20171;-60
2021/12/15 10:49:05;;;;;;;17.33;8.48;;;9.10;99.90;;;;;;5095337;28;20167;-61
2021/12/15 10:51:48;;;;;;;16.63;8.90;;;9.10;99.90;;;;;;5095908;28;20221;-61
2021/12/15 10:54:33;;;;;;;15.90;8.45;;;9.00;99.90;;;;;;5095873;28;20214;-60
2021/12/15 10:57:05;;;;;;;17.58;8.82;;;9.00;99.90;;;;;;5095857;28;20601;-60
2021/12/15 10:59:37;;;;;;;13.80;7.90;;;9.00;99.90;;;;;;5096040;28;20176;-60
2021/12/15 11:02:17;;;;;;;14.90;8.63;;;9.00;99.90;;;;;;5095935;28;20183;-60
2021/12/15 11:04:50;;;;;;;15.90;8.07;;;9.10;99.90;;;;;;5095777;28;20262;-61
2021/12/15 11:07:21;;;;;;;19.05;8.75;;;9.10;99.90;;;;;;5095520;28;20172;-61
2021/12/15 11:10:07;;;;;;;12.80;8.20;;;9.10;99.90;;;;;;5095857;28;20168;-61
2021/12/15 11:12:40;;;;;;;15.73;8.43;;;9.20;99.90;;;;;;5095606;28;20215;-61
2021/12/15 11:15:17;;;;;;;16.23;8.57;;;9.30;99.90;;;;;;5095738;28;20216;-61
2021/12/15 11:18:01;;;;;;;15.82;9.00;;;9.30;99.90;;;;;;5095829;28;20183;-61
2021/12/15 11:20:32;;;;;;;19.55;10.50;;;9.30;99.90;;;;;;5095518;28;20266;-61
2021/12/15 11:23:00;;;;;;;17.05;9.55;;;9.40;99.90;;;;;;5095610;28;20655;-61
2021/12/15 11:25:43;;;;;;;17.88;9.93;;;9.50;99.90;;;;;;5095546;28;20221;-61
2021/12/15 11:28:19;;;;;;;16.75;10.20;;;9.50;99.90;;;;;;5095429;28;20558;-61
2021/12/15 11:31:06;;;;;;;18.33;11.88;;;9.50;99.90;;;;;;5095323;28;20313;-61
2021/12/15 11:33:42;;;;;;;19.63;11.55;;;9.50;99.90;;;;;;5095242;28;20685;-61
2021/12/15 11:36:14;;;;;;;15.63;9.27;;;9.50;99.90;;;;;;5095214;28;20180;-61
2021/12/15 11:38:44;;;;;;;10.73;6.25;;;9.50;99.90;;;;;;5095363;28;20203;-61
2021/12/15 11:41:24;;;;;;;11.48;6.35;;;9.50;99.90;;;;;;5095064;28;20168;-61
2021/12/15 11:44:03;;;;;;;12.50;7.20;;;9.40;99.90;;;;;;5095161;28;20164;-61
2021/12/15 11:46:48;;;;;;;11.93;6.38;;;9.30;99.90;;;;;;5095098;28;20176;-61
2021/12/15 11:49:26;;;;;;;7.65;5.03;;;9.30;99.90;;;;;;5094923;28;20263;-61
2021/12/15 11:51:54;;;;;;;6.97;4.28;;;9.40;99.90;;;;;;5094794;28;20578;-61
2021/12/15 11:54:32;;;;;;;8.32;4.43;;;9.30;99.90;;;;;;5094763;28;20318;-61
2021/12/15 11:57:06;;;;;;;6.40;4.15;;;9.30;99.90;;;;;;5094845;28;20226;-61
2021/12/15 11:59:37;;;;;;;6.72;3.88;;;9.30;99.90;;;;;;5094496;28;20528;-61
2021/12/15 12:02:07;;;;;;;5.97;3.60;;;9.30;99.90;;;;;;5094842;28;20160;-61
2021/12/15 12:04:46;;;;;;;6.07;3.42;;;9.20;99.90;;;;;;5094602;28;20172;-61
2021/12/15 12:07:17;;;;;;;5.68;3.58;;;9.10;99.90;;;;;;5094968;28;20175;-61
2021/12/15 12:09:46;;;;;;;4.80;3.53;;;9.20;99.90;;;;;;5094717;28;20239;-61
2021/12/15 12:12:13;;;;;;;6.03;3.50;;;9.30;99.90;;;;;;5094518;28;20180;-62
2021/12/15 12:14:51;;;;;;;4.28;3.03;;;9.30;99.90;;;;;;5094425;28;20273;-61
2021/12/15 12:17:35;;;;;;;5.93;3.60;;;9.30;99.90;;;;;;5094485;28;20171;-62
2021/12/15 12:20:15;;;;;;;5.68;4.20;;;9.30;99.90;;;;;;5094488;28;20537;-61
2021/12/15 12:22:43;;;;;;;5.93;3.47;;;9.30;99.90;;;;;;5094517;28;20167;-61
2021/12/15 12:25:16;;;;;;;5.05;3.70;;;9.30;99.90;;;;;;5094531;28;20199;-61
2021/12/15 12:27:43;;;;;;;5.97;4.03;;;9.20;99.90;;;;;;5094185;28;20194;-62
2021/12/15 12:30:12;;;;;;;5.70;3.78;;;9.20;99.90;;;;;;5094208;28;20707;-60
2021/12/15 12:32:39;;;;;;;6.15;4.30;;;9.10;99.90;;;;;;5094340;28;20187;-60
2021/12/15 12:35:08;;;;;;;6.00;3.70;;;9.10;99.90;;;;;;5094318;28;20211;-61
2021/12/15 12:37:34;;;;;;;3.70;2.60;;;8.90;99.90;;;;;;5093822;28;20172;-61
2021/12/15 12:40:08;;;;;;;3.55;2.70;;;8.90;99.90;;;;;;5094118;28;20258;-60
2021/12/15 12:42:43;;;;;;;4.85;3.15;;;8.80;99.90;;;;;;5093856;28;20180;-60
2021/12/15 12:45:23;;;;;;;15.00;6.32;;;8.80;99.90;;;;;;5094063;28;20168;-62
2021/12/15 12:48:25;;;;;;;6.20;3.33;;;8.80;99.90;;;;;;5094089;28;20176;-60
2021/12/15 12:57:54;;;;;;;4.15;3.10;;;8.70;99.90;;;;;;5093909;28;20180;-60
2021/12/15 12:59:40;;;;;;;4.38;3.15;;;8.80;99.90;;;;;;5093961;28;20233;-60
2021/12/15 13:02:35;;;;;;;5.60;3.05;;;8.80;99.90;;;;;;5093687;28;20575;-61
2021/12/15 13:05:01;;;;;;;4.15;2.78;;;8.80;99.90;;;;;;5093729;28;20238;-60
2021/12/15 13:07:54;;;;;;;3.58;2.60;;;8.80;99.90;;;;;;5093546;28;20299;-60
2021/12/15 13:10:21;;;;;;;3.50;2.78;;;8.80;99.90;;;;;;5092649;28;20176;-60
2021/12/15 13:12:48;;;;;;;3.75;2.78;;;8.70;99.90;;;;;;5093542;28;20177;-63
2021/12/15 13:15:21;;;;;;;3.90;2.95;;;8.70;99.90;;;;;;5093442;28;20701;-62
2021/12/15 13:18:01;;;;;;;4.05;3.05;;;8.70;99.90;;;;;;5093373;28;20658;-60
2021/12/15 13:20:32;;;;;;;3.83;2.70;;;8.70;99.90;;;;;;5093311;28;20639;-60
2021/12/15 13:31:06;;;;;;;4.90;3.60;;;8.60;99.90;;;;;;5093114;28;20172;-61
2021/12/15 13:33:35;;;;;;;4.40;3.20;;;8.60;99.90;;;;;;5092969;28;20269;-61
2021/12/15 13:36:36;;;;;;;4.43;3.13;;;8.60;99.90;;;;;;5092914;28;20203;-61
2021/12/15 13:39:02;;;;;;;3.70;3.05;;;8.60;99.90;;;;;;5085632;28;20175;-60
2021/12/15 13:44:35;;;;;;;9.07;4.32;;;8.60;99.90;;;;;;5092597;28;20254;-62
2021/12/15 13:47:09;;;;;;;5.60;3.58;;;8.60;99.90;;;;;;5091313;28;20188;-61
2021/12/15 13:49:54;;;;;;;5.63;3.97;;;8.60;99.90;;;;;;5092059;28;20176;-61
2021/12/15 13:52:43;;;;;;;5.05;3.60;;;8.50;99.90;;;;;;5072477;28;20259;-61
2021/12/15 13:55:13;;;;;;;5.20;3.78;;;8.50;99.90;;;;;;5084755;28;20294;-60
2021/12/15 13:58:06;;;;;;;6.97;4.00;;;8.50;99.90;;;;;;5092460;28;20276;-60
2021/12/15 14:00:38;;;;;;;10.18;4.60;;;8.40;99.90;;;;;;5091769;28;20186;-60
2021/12/15 14:03:20;;;;;;;6.57;3.97;;;8.40;99.90;;;;;;5091146;28;20176;-60
2021/12/15 14:05:57;;;;;;;5.18;3.65;;;8.30;99.90;;;;;;5092280;28;20262;-61
2021/12/15 14:08:34;;;;;;;5.75;3.95;;;8.20;99.90;;;;;;5091885;28;20179;-61
2021/12/15 14:11:08;;;;;;;5.68;3.38;;;8.20;99.90;;;;;;5092406;28;20255;-60
2021/12/15 14:13:44;;;;;;;5.97;4.25;;;8.10;99.90;;;;;;5091563;28;20207;-61
2021/12/15 14:16:10;;;;;;;6.60;4.90;;;8.10;99.90;;;;;;5091804;28;20199;-60
2021/12/15 14:18:37;;;;;;;6.43;3.75;;;8.00;99.90;;;;;;5091986;28;20187;-60
2021/12/15 14:21:16;;;;;;;6.72;4.07;;;8.00;99.90;;;;;;5091342;28;20627;-61
2021/12/15 14:23:45;;;;;;;7.40;4.43;;;8.00;99.90;;;;;;5090278;28;20180;-62
2021/12/15 14:26:15;;;;;;;5.40;3.70;;;8.10;99.90;;;;;;5091201;28;20196;-61
2021/12/15 14:28:44;;;;;;;6.05;4.22;;;8.00;99.90;;;;;;5088934;28;20184;-61
2021/12/15 14:31:14;;;;;;;7.40;4.20;;;8.00;99.90;;;;;;5091419;28;20219;-59
2021/12/15 14:33:43;;;;;;;5.15;4.15;;;8.00;99.90;;;;;;5091609;28;20682;-61